sensor_id;sensor_type;location;lat;lon;timestamp;P1;durP1;ratioP1;P2;durP2;ratioP2
36653;SDS011;22650;49.350;20.898;2023-08-12T00:01:22;165.52;;;64.88;;
36653;SDS011;22650;49.350;20.898;2023-08-12T00:03:57;166.48;;;54.85;;
36653;SDS011;22650;49.350;20.898;2023-08-12T00:06:32;165.38;;;51.58;;
36653;SDS011;22650;49.350;20.898;2023-08-12T00:09:06;232.75;;;60.80;;
36653;SDS011;22650;49.350;20.898;2023-08-12T00:11:40;171.93;;;57.33;;
36653;SDS011;22650;49.350;20.898;2023-08-12T00:14:13;162.25;;;66.95;;
36653;SDS011;22650;49.350;20.898;2023-08-12T00:16:47;221.00;;;74.00;;
36653;SDS011;22650;49.350;20.898;2023-08-12T00:19:20;178.95;;;50.45;;
36653;SDS011;22650;49.350;20.898;2023-08-12T00:21:55;181.68;;;51.83;;
36653;SDS011;22650;49.350;20.898;2023-08-12T00:24:29;147.57;;;46.72;;
36653;SDS011;22650;49.350;20.898;2023-08-12T00:27:03;151.05;;;52.40;;
36653;SDS011;22650;49.350;20.898;2023-08-12T00:29:36;145.30;;;54.60;;
36653;SDS011;22650;49.350;20.898;2023-08-12T00:32:10;196.50;;;56.17;;
36653;SDS011;22650;49.350;20.898;2023-08-12T00:34:44;178.23;;;58.15;;
36653;SDS011;22650;49.350;20.898;2023-08-12T00:37:19;175.48;;;57.50;;
36653;SDS011;22650;49.350;20.898;2023-08-12T00:39:52;154.80;;;51.13;;
36653;SDS011;22650;49.350;20.898;2023-08-12T00:42:27;200.05;;;55.88;;
36653;SDS011;22650;49.350;20.898;2023-08-12T00:45:01;190.57;;;60.58;;
36653;SDS011;22650;49.350;20.898;2023-08-12T00:47:35;181.48;;;53.67;;
36653;SDS011;22650;49.350;20.898;2023-08-12T00:50:10;133.35;;;51.78;;
36653;SDS011;22650;49.350;20.898;2023-08-12T00:52:48;150.05;;;49.55;;
36653;SDS011;22650;49.350;20.898;2023-08-12T00:55:22;153.05;;;53.42;;
36653;SDS011;22650;49.350;20.898;2023-08-12T00:57:56;231.10;;;74.45;;
36653;SDS011;22650;49.350;20.898;2023-08-12T01:00:30;145.70;;;51.42;;
36653;SDS011;22650;49.350;20.898;2023-08-12T01:03:05;181.95;;;62.55;;
36653;SDS011;22650;49.350;20.898;2023-08-12T01:05:39;180.32;;;57.33;;
36653;SDS011;22650;49.350;20.898;2023-08-12T01:08:15;201.68;;;58.55;;
36653;SDS011;22650;49.350;20.898;2023-08-12T01:10:49;148.10;;;50.45;;
36653;SDS011;22650;49.350;20.898;2023-08-12T01:13:29;165.50;;;41.72;;
36653;SDS011;22650;49.350;20.898;2023-08-12T01:16:06;160.68;;;49.70;;
36653;SDS011;22650;49.350;20.898;2023-08-12T01:18:42;160.20;;;49.38;;
36653;SDS011;22650;49.350;20.898;2023-08-12T01:21:17;164.07;;;42.65;;
36653;SDS011;22650;49.350;20.898;2023-08-12T01:23:55;147.85;;;41.47;;
36653;SDS011;22650;49.350;20.898;2023-08-12T01:26:29;144.80;;;46.97;;
36653;SDS011;22650;49.350;20.898;2023-08-12T01:29:02;98.00;;;41.92;;
36653;SDS011;22650;49.350;20.898;2023-08-12T01:31:37;168.50;;;37.30;;
36653;SDS011;22650;49.350;20.898;2023-08-12T01:34:19;162.43;;;43.72;;
36653;SDS011;22650;49.350;20.898;2023-08-12T01:36:59;141.65;;;43.70;;
36653;SDS011;22650;49.350;20.898;2023-08-12T01:39:36;126.75;;;38.95;;
36653;SDS011;22650;49.350;20.898;2023-08-12T01:42:12;229.98;;;38.95;;
36653;SDS011;22650;49.350;20.898;2023-08-12T01:44:46;145.02;;;36.10;;
36653;SDS011;22650;49.350;20.898;2023-08-12T01:47:20;136.35;;;40.80;;
36653;SDS011;22650;49.350;20.898;2023-08-12T01:49:54;144.25;;;37.88;;
36653;SDS011;22650;49.350;20.898;2023-08-12T01:52:28;101.45;;;36.72;;
36653;SDS011;22650;49.350;20.898;2023-08-12T01:55:04;136.65;;;43.72;;
36653;SDS011;22650;49.350;20.898;2023-08-12T01:57:37;123.03;;;40.13;;
36653;SDS011;22650;49.350;20.898;2023-08-12T02:00:11;99.03;;;36.17;;
36653;SDS011;22650;49.350;20.898;2023-08-12T02:02:48;130.50;;;38.45;;
36653;SDS011;22650;49.350;20.898;2023-08-12T02:05:21;76.85;;;32.80;;
36653;SDS011;22650;49.350;20.898;2023-08-12T02:07:55;161.80;;;39.35;;
36653;SDS011;22650;49.350;20.898;2023-08-12T02:10:30;120.88;;;36.15;;
36653;SDS011;22650;49.350;20.898;2023-08-12T02:13:04;93.57;;;38.13;;
36653;SDS011;22650;49.350;20.898;2023-08-12T02:15:37;132.13;;;37.25;;
36653;SDS011;22650;49.350;20.898;2023-08-12T02:18:16;119.95;;;42.97;;
36653;SDS011;22650;49.350;20.898;2023-08-12T02:20:50;136.05;;;41.30;;
36653;SDS011;22650;49.350;20.898;2023-08-12T02:23:23;127.55;;;39.10;;
36653;SDS011;22650;49.350;20.898;2023-08-12T02:25:58;126.10;;;42.30;;
36653;SDS011;22650;49.350;20.898;2023-08-12T02:28:32;110.72;;;40.53;;
36653;SDS011;22650;49.350;20.898;2023-08-12T02:31:05;126.05;;;37.05;;
36653;SDS011;22650;49.350;20.898;2023-08-12T02:33:39;93.65;;;34.83;;
36653;SDS011;22650;49.350;20.898;2023-08-12T02:36:12;114.75;;;39.78;;
36653;SDS011;22650;49.350;20.898;2023-08-12T02:38:46;112.05;;;37.28;;
36653;SDS011;22650;49.350;20.898;2023-08-12T02:41:21;138.27;;;41.05;;
36653;SDS011;22650;49.350;20.898;2023-08-12T02:43:57;209.52;;;43.92;;
36653;SDS011;22650;49.350;20.898;2023-08-12T02:46:30;79.50;;;34.47;;
36653;SDS011;22650;49.350;20.898;2023-08-12T02:49:04;109.13;;;42.08;;
36653;SDS011;22650;49.350;20.898;2023-08-12T02:51:38;93.00;;;32.97;;
36653;SDS011;22650;49.350;20.898;2023-08-12T02:54:11;128.93;;;37.55;;
36653;SDS011;22650;49.350;20.898;2023-08-12T02:56:46;109.68;;;38.13;;
36653;SDS011;22650;49.350;20.898;2023-08-12T02:59:22;141.07;;;41.75;;
36653;SDS011;22650;49.350;20.898;2023-08-12T03:01:56;197.45;;;42.78;;
36653;SDS011;22650;49.350;20.898;2023-08-12T03:04:31;101.97;;;36.53;;
36653;SDS011;22650;49.350;20.898;2023-08-12T03:07:04;103.50;;;32.20;;
36653;SDS011;22650;49.350;20.898;2023-08-12T03:09:38;169.70;;;52.55;;
36653;SDS011;22650;49.350;20.898;2023-08-12T03:12:14;161.02;;;45.95;;
36653;SDS011;22650;49.350;20.898;2023-08-12T03:14:47;86.78;;;32.40;;
36653;SDS011;22650;49.350;20.898;2023-08-12T03:17:21;94.43;;;37.28;;
36653;SDS011;22650;49.350;20.898;2023-08-12T03:19:56;96.97;;;39.55;;
36653;SDS011;22650;49.350;20.898;2023-08-12T03:22:34;110.70;;;36.55;;
36653;SDS011;22650;49.350;20.898;2023-08-12T03:25:08;92.10;;;36.40;;
36653;SDS011;22650;49.350;20.898;2023-08-12T03:27:43;132.63;;;46.80;;
36653;SDS011;22650;49.350;20.898;2023-08-12T03:30:17;112.00;;;35.78;;
36653;SDS011;22650;49.350;20.898;2023-08-12T03:32:52;113.93;;;38.35;;
36653;SDS011;22650;49.350;20.898;2023-08-12T03:35:26;144.80;;;44.25;;
36653;SDS011;22650;49.350;20.898;2023-08-12T03:38:00;142.98;;;39.30;;
36653;SDS011;22650;49.350;20.898;2023-08-12T03:40:37;91.47;;;40.30;;
36653;SDS011;22650;49.350;20.898;2023-08-12T03:43:18;116.55;;;36.83;;
36653;SDS011;22650;49.350;20.898;2023-08-12T03:45:53;117.75;;;41.28;;
36653;SDS011;22650;49.350;20.898;2023-08-12T03:48:27;131.32;;;43.92;;
36653;SDS011;22650;49.350;20.898;2023-08-12T03:51:02;105.05;;;33.83;;
36653;SDS011;22650;49.350;20.898;2023-08-12T03:53:36;103.65;;;35.47;;
36653;SDS011;22650;49.350;20.898;2023-08-12T03:56:10;76.60;;;35.13;;
36653;SDS011;22650;49.350;20.898;2023-08-12T03:58:48;87.63;;;30.75;;
36653;SDS011;22650;49.350;20.898;2023-08-12T04:01:22;91.75;;;27.58;;
36653;SDS011;22650;49.350;20.898;2023-08-12T04:03:55;96.55;;;31.00;;
36653;SDS011;22650;49.350;20.898;2023-08-12T04:06:29;81.55;;;32.10;;
36653;SDS011;22650;49.350;20.898;2023-08-12T04:09:02;99.13;;;28.00;;
36653;SDS011;22650;49.350;20.898;2023-08-12T04:11:36;101.10;;;30.95;;
36653;SDS011;22650;49.350;20.898;2023-08-12T04:14:12;91.18;;;36.05;;
36653;SDS011;22650;49.350;20.898;2023-08-12T04:16:47;124.70;;;33.58;;
36653;SDS011;22650;49.350;20.898;2023-08-12T04:19:21;123.05;;;33.65;;
36653;SDS011;22650;49.350;20.898;2023-08-12T04:21:55;132.57;;;39.85;;
36653;SDS011;22650;49.350;20.898;2023-08-12T04:24:28;146.25;;;35.90;;
36653;SDS011;22650;49.350;20.898;2023-08-12T04:27:02;121.35;;;33.15;;
36653;SDS011;22650;49.350;20.898;2023-08-12T04:29:37;105.15;;;28.95;;
36653;SDS011;22650;49.350;20.898;2023-08-12T04:32:11;136.20;;;34.95;;
36653;SDS011;22650;49.350;20.898;2023-08-12T04:34:45;131.65;;;32.88;;
36653;SDS011;22650;49.350;20.898;2023-08-12T04:37:19;121.05;;;35.92;;
36653;SDS011;22650;49.350;20.898;2023-08-12T04:39:54;128.38;;;36.10;;
36653;SDS011;22650;49.350;20.898;2023-08-12T04:42:28;111.78;;;37.92;;
36653;SDS011;22650;49.350;20.898;2023-08-12T04:45:03;121.07;;;29.73;;
36653;SDS011;22650;49.350;20.898;2023-08-12T04:47:38;118.95;;;31.10;;
36653;SDS011;22650;49.350;20.898;2023-08-12T04:50:16;89.85;;;31.95;;
36653;SDS011;22650;49.350;20.898;2023-08-12T04:52:49;93.18;;;31.38;;
36653;SDS011;22650;49.350;20.898;2023-08-12T04:55:24;127.30;;;34.92;;
36653;SDS011;22650;49.350;20.898;2023-08-12T04:57:59;100.95;;;29.35;;
36653;SDS011;22650;49.350;20.898;2023-08-12T05:00:34;98.65;;;40.63;;
36653;SDS011;22650;49.350;20.898;2023-08-12T05:03:08;133.73;;;33.15;;
36653;SDS011;22650;49.350;20.898;2023-08-12T05:05:43;104.38;;;36.85;;
36653;SDS011;22650;49.350;20.898;2023-08-12T05:08:20;96.05;;;42.58;;
36653;SDS011;22650;49.350;20.898;2023-08-12T05:10:54;83.70;;;25.27;;
36653;SDS011;22650;49.350;20.898;2023-08-12T05:13:28;94.15;;;39.13;;
36653;SDS011;22650;49.350;20.898;2023-08-12T05:16:03;110.95;;;42.25;;
36653;SDS011;22650;49.350;20.898;2023-08-12T05:18:37;73.28;;;59.55;;
36653;SDS011;22650;49.350;20.898;2023-08-12T05:21:11;82.93;;;43.55;;
36653;SDS011;22650;49.350;20.898;2023-08-12T05:23:46;99.90;;;56.78;;
36653;SDS011;22650;49.350;20.898;2023-08-12T05:26:20;93.25;;;52.92;;
36653;SDS011;22650;49.350;20.898;2023-08-12T05:29:11;103.82;;;42.42;;
36653;SDS011;22650;49.350;20.898;2023-08-12T05:31:46;97.10;;;57.78;;
36653;SDS011;22650;49.350;20.898;2023-08-12T05:34:19;90.03;;;52.58;;
36653;SDS011;22650;49.350;20.898;2023-08-12T05:36:53;58.60;;;36.60;;
36653;SDS011;22650;49.350;20.898;2023-08-12T05:39:26;101.65;;;38.50;;
36653;SDS011;22650;49.350;20.898;2023-08-12T05:42:00;92.78;;;38.80;;
36653;SDS011;22650;49.350;20.898;2023-08-12T05:44:34;94.15;;;37.20;;
36653;SDS011;22650;49.350;20.898;2023-08-12T05:47:08;92.10;;;36.97;;
36653;SDS011;22650;49.350;20.898;2023-08-12T05:49:42;86.43;;;33.92;;
36653;SDS011;22650;49.350;20.898;2023-08-12T05:52:16;140.93;;;36.72;;
36653;SDS011;22650;49.350;20.898;2023-08-12T05:54:50;104.35;;;34.53;;
36653;SDS011;22650;49.350;20.898;2023-08-12T05:57:23;107.13;;;34.70;;
36653;SDS011;22650;49.350;20.898;2023-08-12T06:00:00;91.60;;;38.50;;
36653;SDS011;22650;49.350;20.898;2023-08-12T06:02:43;77.55;;;47.50;;
36653;SDS011;22650;49.350;20.898;2023-08-12T06:05:16;97.90;;;50.47;;
36653;SDS011;22650;49.350;20.898;2023-08-12T06:07:50;95.05;;;41.70;;
36653;SDS011;22650;49.350;20.898;2023-08-12T06:10:24;82.97;;;43.75;;
36653;SDS011;22650;49.350;20.898;2023-08-12T06:12:57;97.28;;;31.30;;
36653;SDS011;22650;49.350;20.898;2023-08-12T06:15:31;110.38;;;51.53;;
36653;SDS011;22650;49.350;20.898;2023-08-12T06:18:06;108.88;;;55.58;;
36653;SDS011;22650;49.350;20.898;2023-08-12T06:20:40;84.93;;;40.35;;
36653;SDS011;22650;49.350;20.898;2023-08-12T06:23:13;74.15;;;49.90;;
36653;SDS011;22650;49.350;20.898;2023-08-12T06:25:48;114.80;;;55.75;;
36653;SDS011;22650;49.350;20.898;2023-08-12T06:28:21;90.13;;;46.15;;
36653;SDS011;22650;49.350;20.898;2023-08-12T06:30:55;127.32;;;54.80;;
36653;SDS011;22650;49.350;20.898;2023-08-12T06:33:30;109.80;;;69.40;;
36653;SDS011;22650;49.350;20.898;2023-08-12T06:36:04;105.22;;;62.08;;
36653;SDS011;22650;49.350;20.898;2023-08-12T06:38:38;126.30;;;43.53;;
36653;SDS011;22650;49.350;20.898;2023-08-12T06:41:13;98.93;;;39.58;;
36653;SDS011;22650;49.350;20.898;2023-08-12T06:43:46;123.10;;;50.30;;
36653;SDS011;22650;49.350;20.898;2023-08-12T06:46:20;135.43;;;61.53;;
36653;SDS011;22650;49.350;20.898;2023-08-12T06:48:55;117.60;;;34.08;;
36653;SDS011;22650;49.350;20.898;2023-08-12T06:51:28;145.50;;;45.97;;
36653;SDS011;22650;49.350;20.898;2023-08-12T06:54:02;193.05;;;58.75;;
36653;SDS011;22650;49.350;20.898;2023-08-12T06:56:36;138.40;;;42.63;;
36653;SDS011;22650;49.350;20.898;2023-08-12T06:59:09;203.85;;;57.42;;
36653;SDS011;22650;49.350;20.898;2023-08-12T07:01:43;236.38;;;76.22;;
36653;SDS011;22650;49.350;20.898;2023-08-12T07:04:18;213.07;;;59.13;;
36653;SDS011;22650;49.350;20.898;2023-08-12T07:06:52;200.73;;;68.10;;
36653;SDS011;22650;49.350;20.898;2023-08-12T07:09:26;299.60;;;111.22;;
36653;SDS011;22650;49.350;20.898;2023-08-12T07:11:59;261.67;;;100.68;;
36653;SDS011;22650;49.350;20.898;2023-08-12T07:14:34;306.17;;;113.18;;
36653;SDS011;22650;49.350;20.898;2023-08-12T07:17:08;1022.63;;;537.78;;
36653;SDS011;22650;49.350;20.898;2023-08-12T07:19:43;904.83;;;425.85;;
36653;SDS011;22650;49.350;20.898;2023-08-12T07:22:16;1622.88;;;728.28;;
36653;SDS011;22650;49.350;20.898;2023-08-12T07:24:52;1509.68;;;699.10;;
36653;SDS011;22650;49.350;20.898;2023-08-12T07:27:26;1306.15;;;583.97;;
36653;SDS011;22650;49.350;20.898;2023-08-12T07:30:00;1999.90;;;999.25;;
36653;SDS011;22650;49.350;20.898;2023-08-12T07:32:36;1999.90;;;999.90;;
36653;SDS011;22650;49.350;20.898;2023-08-12T07:35:12;1999.90;;;999.90;;
36653;SDS011;22650;49.350;20.898;2023-08-12T07:37:46;1999.90;;;999.90;;
36653;SDS011;22650;49.350;20.898;2023-08-12T07:40:19;1999.90;;;999.90;;
36653;SDS011;22650;49.350;20.898;2023-08-12T07:42:53;1999.90;;;999.90;;
36653;SDS011;22650;49.350;20.898;2023-08-12T07:45:26;1999.90;;;999.90;;
36653;SDS011;22650;49.350;20.898;2023-08-12T07:48:00;1999.90;;;999.90;;
36653;SDS011;22650;49.350;20.898;2023-08-12T07:50:35;1999.90;;;999.90;;
36653;SDS011;22650;49.350;20.898;2023-08-12T07:53:09;1999.90;;;999.90;;
36653;SDS011;22650;49.350;20.898;2023-08-12T07:55:43;1999.90;;;957.22;;
36653;SDS011;22650;49.350;20.898;2023-08-12T07:58:16;1999.90;;;825.63;;
36653;SDS011;22650;49.350;20.898;2023-08-12T08:00:52;1999.90;;;999.90;;
36653;SDS011;22650;49.350;20.898;2023-08-12T08:03:26;1999.90;;;999.90;;
36653;SDS011;22650;49.350;20.898;2023-08-12T08:06:01;1999.90;;;999.90;;
36653;SDS011;22650;49.350;20.898;2023-08-12T08:08:35;1999.90;;;999.90;;
36653;SDS011;22650;49.350;20.898;2023-08-12T08:11:08;1999.90;;;999.90;;
36653;SDS011;22650;49.350;20.898;2023-08-12T08:13:42;1999.90;;;999.90;;
36653;SDS011;22650;49.350;20.898;2023-08-12T08:16:16;1999.90;;;999.90;;
36653;SDS011;22650;49.350;20.898;2023-08-12T08:18:50;1999.90;;;999.90;;
36653;SDS011;22650;49.350;20.898;2023-08-12T08:21:25;1999.90;;;999.90;;
36653;SDS011;22650;49.350;20.898;2023-08-12T08:23:58;1999.90;;;999.90;;
36653;SDS011;22650;49.350;20.898;2023-08-12T08:26:32;1999.90;;;999.90;;
36653;SDS011;22650;49.350;20.898;2023-08-12T08:29:06;1999.90;;;999.90;;
36653;SDS011;22650;49.350;20.898;2023-08-12T08:31:40;1999.90;;;999.90;;
36653;SDS011;22650;49.350;20.898;2023-08-12T08:34:14;1999.90;;;999.90;;
36653;SDS011;22650;49.350;20.898;2023-08-12T08:36:49;1999.90;;;999.90;;
36653;SDS011;22650;49.350;20.898;2023-08-12T08:39:23;1999.90;;;999.90;;
36653;SDS011;22650;49.350;20.898;2023-08-12T08:41:58;1999.90;;;999.90;;
36653;SDS011;22650;49.350;20.898;2023-08-12T08:44:31;1999.90;;;999.90;;
36653;SDS011;22650;49.350;20.898;2023-08-12T08:47:06;1999.90;;;999.90;;
36653;SDS011;22650;49.350;20.898;2023-08-12T08:49:41;1999.90;;;999.90;;
36653;SDS011;22650;49.350;20.898;2023-08-12T08:52:16;1999.90;;;999.90;;
36653;SDS011;22650;49.350;20.898;2023-08-12T08:54:51;1999.90;;;999.90;;
36653;SDS011;22650;49.350;20.898;2023-08-12T08:57:25;1999.90;;;999.90;;
36653;SDS011;22650;49.350;20.898;2023-08-12T09:00:11;1999.90;;;999.90;;
36653;SDS011;22650;49.350;20.898;2023-08-12T09:02:49;1999.90;;;999.90;;
36653;SDS011;22650;49.350;20.898;2023-08-12T09:05:23;1999.90;;;999.90;;
36653;SDS011;22650;49.350;20.898;2023-08-12T09:08:00;1999.90;;;999.90;;
36653;SDS011;22650;49.350;20.898;2023-08-12T09:10:36;1999.90;;;999.90;;
36653;SDS011;22650;49.350;20.898;2023-08-12T09:13:12;1999.90;;;999.90;;
36653;SDS011;22650;49.350;20.898;2023-08-12T09:15:46;1999.90;;;999.90;;
36653;SDS011;22650;49.350;20.898;2023-08-12T09:18:20;1999.90;;;999.90;;
36653;SDS011;22650;49.350;20.898;2023-08-12T09:20:56;1999.90;;;999.90;;
36653;SDS011;22650;49.350;20.898;2023-08-12T09:23:35;1999.90;;;999.90;;
36653;SDS011;22650;49.350;20.898;2023-08-12T09:26:13;1999.90;;;999.90;;
36653;SDS011;22650;49.350;20.898;2023-08-12T09:28:48;1999.90;;;999.90;;
36653;SDS011;22650;49.350;20.898;2023-08-12T09:31:25;1999.90;;;999.90;;
36653;SDS011;22650;49.350;20.898;2023-08-12T09:34:03;1999.90;;;999.90;;
36653;SDS011;22650;49.350;20.898;2023-08-12T09:36:38;1999.90;;;999.90;;
36653;SDS011;22650;49.350;20.898;2023-08-12T09:39:14;1999.90;;;999.90;;
36653;SDS011;22650;49.350;20.898;2023-08-12T09:41:48;1999.90;;;999.90;;
36653;SDS011;22650;49.350;20.898;2023-08-12T09:44:24;1999.90;;;999.90;;
36653;SDS011;22650;49.350;20.898;2023-08-12T09:46:58;1999.90;;;999.90;;
36653;SDS011;22650;49.350;20.898;2023-08-12T09:49:32;1999.90;;;999.90;;
36653;SDS011;22650;49.350;20.898;2023-08-12T09:52:07;1999.90;;;999.90;;
36653;SDS011;22650;49.350;20.898;2023-08-12T09:54:43;1999.90;;;999.90;;
36653;SDS011;22650;49.350;20.898;2023-08-12T09:57:19;1999.90;;;999.90;;
36653;SDS011;22650;49.350;20.898;2023-08-12T09:59:56;1999.90;;;999.90;;
36653;SDS011;22650;49.350;20.898;2023-08-12T10:02:30;1999.90;;;999.90;;
36653;SDS011;22650;49.350;20.898;2023-08-12T10:05:04;1999.90;;;999.90;;
36653;SDS011;22650;49.350;20.898;2023-08-12T10:07:41;1999.90;;;999.90;;
36653;SDS011;22650;49.350;20.898;2023-08-12T10:10:18;1999.90;;;999.90;;
36653;SDS011;22650;49.350;20.898;2023-08-12T10:12:54;1999.90;;;999.90;;
36653;SDS011;22650;49.350;20.898;2023-08-12T10:15:28;1999.90;;;999.90;;
36653;SDS011;22650;49.350;20.898;2023-08-12T10:18:02;1999.90;;;999.90;;
36653;SDS011;22650;49.350;20.898;2023-08-12T10:20:42;1999.90;;;999.90;;
36653;SDS011;22650;49.350;20.898;2023-08-12T10:23:17;1999.90;;;999.90;;
36653;SDS011;22650;49.350;20.898;2023-08-12T10:25:52;1999.90;;;999.90;;
36653;SDS011;22650;49.350;20.898;2023-08-12T10:28:26;1999.90;;;999.90;;
36653;SDS011;22650;49.350;20.898;2023-08-12T10:31:01;1999.90;;;999.90;;
36653;SDS011;22650;49.350;20.898;2023-08-12T10:33:35;1999.90;;;999.90;;
36653;SDS011;22650;49.350;20.898;2023-08-12T10:36:10;1999.90;;;999.90;;
36653;SDS011;22650;49.350;20.898;2023-08-12T10:38:44;1999.90;;;999.90;;
36653;SDS011;22650;49.350;20.898;2023-08-12T10:41:20;1999.90;;;999.90;;
36653;SDS011;22650;49.350;20.898;2023-08-12T10:43:54;1999.90;;;999.90;;
36653;SDS011;22650;49.350;20.898;2023-08-12T10:46:32;1999.90;;;999.90;;
36653;SDS011;22650;49.350;20.898;2023-08-12T10:49:07;1999.90;;;999.90;;
36653;SDS011;22650;49.350;20.898;2023-08-12T10:51:45;1999.90;;;999.90;;
36653;SDS011;22650;49.350;20.898;2023-08-12T10:54:20;1999.90;;;999.90;;
36653;SDS011;22650;49.350;20.898;2023-08-12T10:57:05;1999.90;;;999.90;;
36653;SDS011;22650;49.350;20.898;2023-08-12T10:59:50;1999.90;;;999.90;;
36653;SDS011;22650;49.350;20.898;2023-08-12T11:02:26;1999.90;;;999.90;;
36653;SDS011;22650;49.350;20.898;2023-08-12T11:05:02;1999.90;;;999.90;;
36653;SDS011;22650;49.350;20.898;2023-08-12T11:07:37;1999.90;;;999.90;;
36653;SDS011;22650;49.350;20.898;2023-08-12T11:10:12;1999.90;;;999.90;;
36653;SDS011;22650;49.350;20.898;2023-08-12T11:12:55;1999.90;;;999.90;;
36653;SDS011;22650;49.350;20.898;2023-08-12T11:15:30;1999.90;;;999.90;;
36653;SDS011;22650;49.350;20.898;2023-08-12T11:18:06;1999.90;;;999.90;;
36653;SDS011;22650;49.350;20.898;2023-08-12T11:20:41;1999.90;;;999.90;;
36653;SDS011;22650;49.350;20.898;2023-08-12T11:23:15;1999.90;;;999.90;;
36653;SDS011;22650;49.350;20.898;2023-08-12T11:25:49;1999.90;;;999.90;;
36653;SDS011;22650;49.350;20.898;2023-08-12T11:28:24;1999.90;;;999.90;;
36653;SDS011;22650;49.350;20.898;2023-08-12T11:30:58;1999.90;;;999.90;;
36653;SDS011;22650;49.350;20.898;2023-08-12T11:33:32;1999.90;;;999.90;;
36653;SDS011;22650;49.350;20.898;2023-08-12T11:36:06;1999.90;;;999.90;;
36653;SDS011;22650;49.350;20.898;2023-08-12T11:38:40;1999.90;;;999.90;;
36653;SDS011;22650;49.350;20.898;2023-08-12T11:41:14;1999.90;;;999.90;;
36653;SDS011;22650;49.350;20.898;2023-08-12T11:43:51;1999.90;;;999.90;;
36653;SDS011;22650;49.350;20.898;2023-08-12T11:46:25;1999.90;;;999.90;;
36653;SDS011;22650;49.350;20.898;2023-08-12T11:48:59;1999.90;;;999.90;;
36653;SDS011;22650;49.350;20.898;2023-08-12T11:51:32;1999.90;;;999.90;;
36653;SDS011;22650;49.350;20.898;2023-08-12T11:54:07;1999.90;;;999.90;;
36653;SDS011;22650;49.350;20.898;2023-08-12T11:56:41;1999.90;;;999.90;;
36653;SDS011;22650;49.350;20.898;2023-08-12T11:59:16;1999.90;;;999.90;;
36653;SDS011;22650;49.350;20.898;2023-08-12T12:01:50;1999.90;;;999.90;;
36653;SDS011;22650;49.350;20.898;2023-08-12T12:04:24;1999.90;;;999.90;;
36653;SDS011;22650;49.350;20.898;2023-08-12T12:06:57;1999.90;;;999.90;;
36653;SDS011;22650;49.350;20.898;2023-08-12T12:09:37;1999.90;;;999.90;;
36653;SDS011;22650;49.350;20.898;2023-08-12T12:12:15;1999.90;;;999.90;;
36653;SDS011;22650;49.350;20.898;2023-08-12T12:14:51;1999.90;;;999.90;;
36653;SDS011;22650;49.350;20.898;2023-08-12T12:17:26;1999.90;;;999.90;;
36653;SDS011;22650;49.350;20.898;2023-08-12T12:20:00;1999.90;;;999.90;;
36653;SDS011;22650;49.350;20.898;2023-08-12T12:22:34;1999.90;;;999.90;;
36653;SDS011;22650;49.350;20.898;2023-08-12T12:25:08;1999.90;;;999.90;;
36653;SDS011;22650;49.350;20.898;2023-08-12T12:27:43;1999.90;;;999.90;;
36653;SDS011;22650;49.350;20.898;2023-08-12T12:30:20;1999.90;;;999.90;;
36653;SDS011;22650;49.350;20.898;2023-08-12T12:32:54;1999.90;;;999.90;;
36653;SDS011;22650;49.350;20.898;2023-08-12T12:35:27;1999.90;;;999.90;;
36653;SDS011;22650;49.350;20.898;2023-08-12T12:38:08;1999.90;;;999.90;;
36653;SDS011;22650;49.350;20.898;2023-08-12T12:40:42;1999.90;;;999.90;;
36653;SDS011;22650;49.350;20.898;2023-08-12T12:43:16;1999.90;;;999.90;;
36653;SDS011;22650;49.350;20.898;2023-08-12T12:45:51;1999.90;;;999.90;;
36653;SDS011;22650;49.350;20.898;2023-08-12T12:48:25;1999.90;;;999.90;;
36653;SDS011;22650;49.350;20.898;2023-08-12T12:50:58;1999.90;;;999.90;;
36653;SDS011;22650;49.350;20.898;2023-08-12T12:53:32;1999.90;;;999.90;;
36653;SDS011;22650;49.350;20.898;2023-08-12T12:56:06;1999.90;;;999.90;;
36653;SDS011;22650;49.350;20.898;2023-08-12T12:58:39;1999.90;;;999.90;;
36653;SDS011;22650;49.350;20.898;2023-08-12T13:01:14;1999.90;;;999.90;;
36653;SDS011;22650;49.350;20.898;2023-08-12T13:03:48;1999.90;;;999.90;;
36653;SDS011;22650;49.350;20.898;2023-08-12T13:06:22;1999.90;;;999.90;;
36653;SDS011;22650;49.350;20.898;2023-08-12T13:08:56;1999.90;;;999.90;;
36653;SDS011;22650;49.350;20.898;2023-08-12T13:11:36;1999.90;;;999.90;;
36653;SDS011;22650;49.350;20.898;2023-08-12T13:14:10;1999.90;;;999.90;;
36653;SDS011;22650;49.350;20.898;2023-08-12T13:16:45;1999.90;;;999.90;;
36653;SDS011;22650;49.350;20.898;2023-08-12T13:19:18;1999.90;;;999.90;;
36653;SDS011;22650;49.350;20.898;2023-08-12T13:21:52;1999.90;;;999.90;;
36653;SDS011;22650;49.350;20.898;2023-08-12T13:24:25;1999.90;;;999.90;;
36653;SDS011;22650;49.350;20.898;2023-08-12T13:27:00;1999.90;;;999.90;;
36653;SDS011;22650;49.350;20.898;2023-08-12T13:29:33;1999.90;;;999.90;;
36653;SDS011;22650;49.350;20.898;2023-08-12T13:32:08;1999.90;;;999.90;;
36653;SDS011;22650;49.350;20.898;2023-08-12T13:34:43;1999.90;;;999.90;;
36653;SDS011;22650;49.350;20.898;2023-08-12T13:37:19;1999.90;;;999.90;;
36653;SDS011;22650;49.350;20.898;2023-08-12T13:39:52;1999.90;;;999.90;;
36653;SDS011;22650;49.350;20.898;2023-08-12T13:42:26;1999.90;;;999.90;;
36653;SDS011;22650;49.350;20.898;2023-08-12T13:45:00;1999.90;;;999.90;;
36653;SDS011;22650;49.350;20.898;2023-08-12T13:47:35;1999.90;;;999.90;;
36653;SDS011;22650;49.350;20.898;2023-08-12T13:50:08;1999.90;;;999.90;;
36653;SDS011;22650;49.350;20.898;2023-08-12T13:52:43;1999.90;;;999.90;;
36653;SDS011;22650;49.350;20.898;2023-08-12T13:55:18;1999.90;;;999.90;;
36653;SDS011;22650;49.350;20.898;2023-08-12T13:57:51;1999.90;;;999.90;;
36653;SDS011;22650;49.350;20.898;2023-08-12T14:00:25;1999.90;;;999.90;;
36653;SDS011;22650;49.350;20.898;2023-08-12T14:03:00;1999.90;;;999.90;;
36653;SDS011;22650;49.350;20.898;2023-08-12T14:05:34;1999.90;;;999.90;;
36653;SDS011;22650;49.350;20.898;2023-08-12T14:08:07;1999.90;;;999.90;;
36653;SDS011;22650;49.350;20.898;2023-08-12T14:10:41;1999.90;;;999.90;;
36653;SDS011;22650;49.350;20.898;2023-08-12T14:13:15;1999.90;;;999.90;;
36653;SDS011;22650;49.350;20.898;2023-08-12T14:15:48;1999.90;;;999.90;;
36653;SDS011;22650;49.350;20.898;2023-08-12T14:18:23;1999.90;;;999.90;;
36653;SDS011;22650;49.350;20.898;2023-08-12T14:20:57;1999.90;;;999.90;;
36653;SDS011;22650;49.350;20.898;2023-08-12T14:23:30;1999.90;;;999.90;;
36653;SDS011;22650;49.350;20.898;2023-08-12T14:26:04;1999.90;;;999.90;;
36653;SDS011;22650;49.350;20.898;2023-08-12T14:28:39;1999.90;;;999.90;;